Time;durP1;ratioP1;P1;durP2;ratioP2;P2;SDS_P1;SDS_P2;PMS_P1;PMS_P2;Temp;Humidity;BMP_temperature;BMP_pressure;BME280_temperature;BME280_humidity;BME280_pressure;Samples;Min_cycle;Max_cycle;Signal;HPM_P1;HPM_P2
2022/10/13 00:29:50;;;;;;;26.80;16.95;;;10.00;99.90;;;;;;6303269;22;20023;-79
2022/10/13 00:32:16;;;;;;;27.23;19.10;;;10.10;99.90;;;;;;6281060;22;20098;-80
2022/10/13 00:34:41;;;;;;;26.30;17.02;;;10.10;99.90;;;;;;6280599;22;20456;-80
2022/10/13 00:37:08;;;;;;;26.52;17.00;;;10.00;99.90;;;;;;6280507;22;20011;-80
2022/10/13 00:39:35;;;;;;;30.15;17.00;;;10.10;99.90;;;;;;6281540;22;20102;-79
2022/10/13 00:42:00;;;;;;;27.98;17.10;;;10.10;99.90;;;;;;6281598;22;20094;-79
2022/10/13 00:45:04;;;;;;;31.50;19.65;;;10.10;99.90;;;;;;6282223;22;20454;-79
2022/10/13 00:47:40;;;;;;;29.02;16.83;;;10.10;99.90;;;;;;6282196;22;20019;-79
2022/10/13 00:50:10;;;;;;;25.05;16.75;;;10.10;99.90;;;;;;6283683;22;20073;-79
2022/10/13 00:52:42;;;;;;;27.52;17.13;;;10.20;99.90;;;;;;6282475;22;20003;-79
2022/10/13 00:55:10;;;;;;;;;;;10.20;99.90;;;;;;6283322;22;20438;-79
2022/10/13 00:57:39;;;;;;;29.30;17.48;;;10.10;99.90;;;;;;6281938;22;20274;-79
2022/10/13 01:00:05;;;;;;;28.40;16.33;;;10.10;99.90;;;;;;6279872;22;20024;-79
2022/10/13 01:02:37;;;;;;;30.25;17.40;;;10.20;99.90;;;;;;6282012;22;20029;-79
2022/10/13 01:05:06;;;;;;;28.15;17.33;;;10.20;99.90;;;;;;6282525;22;20019;-79
2022/10/13 01:07:34;;;;;;;28.40;16.77;;;10.10;99.90;;;;;;6282359;22;20069;-80
2022/10/13 01:10:01;;;;;;;25.05;15.13;;;10.10;99.90;;;;;;6281988;22;20091;-79
2022/10/13 01:12:39;;;;;;;28.00;17.67;;;10.10;99.90;;;;;;6281922;22;20011;-79
2022/10/13 01:15:26;;;;;;;28.05;16.38;;;10.10;99.90;;;;;;6282029;22;20019;-79
2022/10/13 01:18:01;;;;;;;30.20;18.48;;;10.10;99.90;;;;;;6282561;22;20084;-79
2022/10/13 01:20:50;;;;;;;28.13;17.42;;;10.10;99.90;;;;;;6281699;22;20020;-80
2022/10/13 01:23:54;;;;;;;30.80;17.23;;;10.10;99.90;;;;;;6282159;22;20105;-79
2022/10/13 01:27:02;;;;;;;33.05;17.05;;;10.10;99.90;;;;;;6247979;22;20011;-79
2022/10/13 01:29:48;;;;;;;29.40;16.77;;;10.10;99.90;;;;;;6263064;22;20019;-80
2022/10/13 01:35:08;;;;;;;31.75;17.55;;;10.10;99.90;;;;;;6306408;22;20030;-80
2022/10/13 01:41:51;;;;;;;31.00;16.75;;;10.10;99.90;;;;;;6285129;22;20026;-80
2022/10/13 01:48:02;;;;;;;27.42;17.42;;;10.10;99.90;;;;;;6311571;22;20476;-79
2022/10/13 01:50:29;;;;;;;28.08;17.83;;;10.00;99.90;;;;;;6282414;22;20019;-79
2022/10/13 01:52:58;;;;;;;29.13;17.40;;;10.00;99.90;;;;;;6310941;22;20011;-80
2022/10/13 01:55:24;;;;;;;27.23;17.65;;;10.00;99.90;;;;;;6282062;22;20023;-80
2022/10/13 01:57:49;;;;;;;28.10;18.00;;;10.00;99.90;;;;;;6311109;22;20430;-80
2022/10/13 02:00:21;;;;;;;33.42;18.15;;;10.00;99.90;;;;;;6283760;22;20386;-79
2022/10/13 02:03:22;;;;;;;34.35;18.90;;;10.00;99.90;;;;;;6282063;22;20015;-80
2022/10/13 02:06:03;;;;;;;31.17;18.38;;;10.00;99.90;;;;;;6310931;22;20069;-80
2022/10/13 02:08:53;;;;;;;29.60;17.90;;;10.00;99.90;;;;;;6281570;22;20022;-79
2022/10/13 02:11:21;;;;;;;28.92;18.23;;;10.00;99.90;;;;;;6282920;22;20023;-79
2022/10/13 02:14:13;;;;;;;30.25;18.65;;;10.00;99.90;;;;;;6283583;22;20048;-79
2022/10/13 02:16:42;;;;;;;34.00;19.67;;;10.00;99.90;;;;;;6310373;22;20065;-79
2022/10/13 02:19:11;;;;;;;32.88;18.95;;;10.00;99.90;;;;;;6283697;22;20496;-79
2022/10/13 02:21:41;;;;;;;29.52;17.83;;;10.00;99.90;;;;;;6282888;22;20011;-79
2022/10/13 02:24:07;;;;;;;28.08;18.50;;;10.10;99.90;;;;;;6283931;22;20030;-80
2022/10/13 02:26:36;;;;;;;33.80;18.73;;;10.10;99.90;;;;;;6309339;22;20011;-80
2022/10/13 02:29:14;;;;;;;34.55;19.17;;;10.00;99.90;;;;;;6283867;22;20479;-80
2022/10/13 02:31:41;;;;;;;29.98;18.65;;;10.10;99.90;;;;;;6310455;22;20012;-80
2022/10/13 02:34:08;;;;;;;30.00;19.38;;;10.10;99.90;;;;;;6282087;22;20065;-80
2022/10/13 02:36:34;;;;;;;30.48;19.55;;;10.00;99.90;;;;;;6309889;22;20059;-81
2022/10/13 02:38:59;;;;;;;31.20;20.55;;;10.10;99.90;;;;;;6309678;22;20018;-81
2022/10/13 02:41:25;;;;;;;33.38;19.88;;;10.10;99.90;;;;;;6282908;22;20503;-81
2022/10/13 02:43:51;;;;;;;31.75;19.45;;;10.00;99.90;;;;;;6281987;22;20026;-81
2022/10/13 02:46:16;;;;;;;30.35;17.95;;;10.00;99.90;;;;;;6310318;22;20007;-81
2022/10/13 02:48:42;;;;;;;29.60;19.42;;;10.00;99.90;;;;;;6282249;22;20057;-81
2022/10/13 02:51:08;;;;;;;31.25;19.20;;;10.00;99.90;;;;;;6282584;22;20468;-80
2022/10/13 02:53:33;;;;;;;30.73;19.45;;;10.00;99.90;;;;;;6310291;22;20015;-81
2022/10/13 02:55:59;;;;;;;36.47;20.50;;;10.00;99.90;;;;;;6309294;22;20331;-81
2022/10/13 02:58:24;;;;;;;31.20;20.25;;;10.00;99.90;;;;;;6283166;22;20098;-81
2022/10/13 03:00:50;;;;;;;32.63;19.70;;;10.00;99.90;;;;;;6283907;22;20022;-81
2022/10/13 03:03:16;;;;;;;29.75;18.35;;;9.90;99.90;;;;;;6281995;22;20045;-81
2022/10/13 03:05:42;;;;;;;32.17;19.73;;;10.00;99.90;;;;;;6309872;22;20014;-81
2022/10/13 03:08:08;;;;;;;33.92;20.40;;;9.90;99.90;;;;;;6310036;22;20086;-82
2022/10/13 03:10:33;;;;;;;32.17;19.95;;;10.00;99.90;;;;;;6309233;22;20011;-81
2022/10/13 03:13:04;;;;;;;32.95;20.10;;;9.90;99.90;;;;;;6282340;22;20019;-81
2022/10/13 03:15:29;;;;;;;35.63;19.58;;;9.90;99.90;;;;;;6310408;22;20018;-81
2022/10/13 03:17:55;;;;;;;31.40;20.20;;;9.90;99.90;;;;;;6282283;22;20019;-81
2022/10/13 03:20:20;;;;;;;32.45;20.35;;;9.90;99.90;;;;;;6282535;22;20023;-82
2022/10/13 03:22:46;;;;;;;35.50;20.33;;;9.90;99.90;;;;;;6281694;22;20011;-82
2022/10/13 03:25:11;;;;;;;32.35;20.13;;;9.90;99.90;;;;;;6281584;22;20031;-82
2022/10/13 03:27:37;;;;;;;31.77;19.45;;;10.00;99.90;;;;;;6309635;22;20035;-82
2022/10/13 03:30:04;;;;;;;32.78;19.50;;;10.00;99.90;;;;;;6310981;22;20019;-82
2022/10/13 03:32:32;;;;;;;30.13;19.88;;;10.00;99.90;;;;;;6310189;22;20372;-81
2022/10/13 03:34:57;;;;;;;31.75;19.92;;;10.00;99.90;;;;;;6281891;22;20049;-81
2022/10/13 03:37:23;;;;;;;36.67;20.48;;;9.90;99.90;;;;;;6283358;22;20011;-81
2022/10/13 03:39:48;;;;;;;31.58;20.45;;;9.90;99.90;;;;;;6309537;22;20012;-81
2022/10/13 03:42:14;;;;;;;31.20;19.35;;;9.90;99.90;;;;;;6282259;22;20023;-81
2022/10/13 03:44:39;;;;;;;31.75;19.55;;;9.90;99.90;;;;;;6309863;22;20435;-81
2022/10/13 03:47:06;;;;;;;34.72;20.30;;;9.90;99.90;;;;;;6282556;22;20019;-81
2022/10/13 03:49:31;;;;;;;36.15;20.80;;;9.90;99.90;;;;;;6309368;22;20019;-81
2022/10/13 03:52:00;;;;;;;33.15;20.23;;;9.90;99.90;;;;;;6282778;22;20026;-81
2022/10/13 03:54:26;;;;;;;34.85;18.95;;;10.00;99.90;;;;;;6309938;22;20073;-81
2022/10/13 03:56:51;;;;;;;36.95;20.27;;;9.90;99.90;;;;;;6311605;22;20012;-81
2022/10/13 03:59:17;;;;;;;32.08;19.75;;;10.00;99.90;;;;;;6283479;22;20015;-81
2022/10/13 04:01:43;;;;;;;35.65;20.42;;;10.00;99.90;;;;;;6310065;22;20454;-81
2022/10/13 04:04:11;;;;;;;31.13;20.20;;;10.00;99.90;;;;;;6309377;22;20007;-81
2022/10/13 04:06:38;;;;;;;32.72;20.65;;;10.00;99.90;;;;;;6282743;22;20073;-82
2022/10/13 04:09:03;;;;;;;33.95;21.00;;;9.90;99.90;;;;;;6309463;22;20469;-82
2022/10/13 04:11:29;;;;;;;35.35;20.50;;;10.00;99.90;;;;;;6282011;22;20302;-82
2022/10/13 04:13:56;;;;;;;37.47;20.25;;;10.00;99.90;;;;;;6281885;22;20498;-82
2022/10/13 04:16:24;;;;;;;31.45;19.63;;;10.00;99.90;;;;;;6310109;22;20057;-82
2022/10/13 04:18:56;;;;;;;32.30;20.92;;;10.00;99.90;;;;;;6311234;22;20011;-82
2022/10/13 04:21:22;;;;;;;37.42;22.67;;;10.00;99.90;;;;;;6284158;22;20015;-81
2022/10/13 04:23:48;;;;;;;32.28;19.85;;;10.00;99.90;;;;;;6284554;22;20015;-81
2022/10/13 04:26:20;;;;;;;34.97;21.83;;;10.00;99.90;;;;;;6311175;22;20022;-82
2022/10/13 04:28:48;;;;;;;31.73;19.38;;;10.00;99.90;;;;;;6284461;22;20026;-82
2022/10/13 04:31:14;;;;;;;37.70;20.50;;;10.00;99.90;;;;;;6283578;22;20018;-82
2022/10/13 04:33:39;;;;;;;35.55;21.77;;;10.10;99.90;;;;;;6283398;22;20015;-82
2022/10/13 04:36:07;;;;;;;41.35;21.70;;;10.10;99.90;;;;;;6309939;22;20022;-82
2022/10/13 04:38:33;;;;;;;31.98;21.42;;;10.10;99.90;;;;;;6311151;22;20025;-82
2022/10/13 04:41:02;;;;;;;42.35;22.45;;;10.10;99.90;;;;;;6311126;22;20039;-83
2022/10/13 04:43:28;;;;;;;43.55;23.27;;;10.10;99.90;;;;;;6283694;22;20061;-82
2022/10/13 04:46:03;;;;;;;39.88;23.05;;;10.10;99.90;;;;;;6311765;22;20038;-82
2022/10/13 04:48:29;;;;;;;31.58;21.88;;;10.10;99.90;;;;;;6310562;22;20015;-82
2022/10/13 04:51:03;;;;;;;38.42;23.20;;;10.10;99.90;;;;;;6283943;22;20065;-81
2022/10/13 04:53:29;;;;;;;42.17;22.40;;;10.20;99.90;;;;;;6283623;22;20054;-82
2022/10/13 04:55:59;;;;;;;38.35;22.17;;;10.10;99.90;;;;;;6309923;22;20369;-82
2022/10/13 04:58:24;;;;;;;32.72;20.90;;;10.20;99.90;;;;;;6283264;22;20015;-82
2022/10/13 05:00:50;;;;;;;35.00;21.83;;;10.20;99.90;;;;;;6282833;22;20030;-82
2022/10/13 05:03:16;;;;;;;36.00;24.08;;;10.20;99.90;;;;;;6310896;22;20038;-82
2022/10/13 05:05:42;;;;;;;39.65;23.67;;;10.20;99.90;;;;;;6283449;22;20025;-83
2022/10/13 05:08:07;;;;;;;38.53;23.15;;;10.20;99.90;;;;;;6282648;22;20019;-84
2022/10/13 05:10:33;;;;;;;43.63;22.30;;;10.20;99.90;;;;;;6282706;22;20485;-84
2022/10/13 05:12:58;;;;;;;38.53;23.73;;;10.20;99.90;;;;;;6358843;22;20021;-84
2022/10/13 05:15:24;;;;;;;41.70;23.98;;;10.30;99.90;;;;;;6344748;22;20448;-83
2022/10/13 05:17:50;;;;;;;38.38;23.65;;;10.20;99.90;;;;;;6344492;22;20082;-83
2022/10/13 05:20:16;;;;;;;44.72;23.27;;;10.30;99.90;;;;;;6345517;22;20019;-82
2022/10/13 05:22:42;;;;;;;45.88;24.02;;;10.30;99.90;;;;;;6344550;22;20337;-83
2022/10/13 05:25:08;;;;;;;47.17;23.85;;;10.30;99.90;;;;;;6344174;22;20025;-82
2022/10/13 05:27:34;;;;;;;43.17;24.85;;;10.30;99.90;;;;;;6345950;22;19995;-83
2022/10/13 05:29:59;;;;;;;42.45;24.65;;;10.30;99.90;;;;;;6372147;22;20067;-85
2022/10/13 05:32:25;;;;;;;43.63;24.38;;;10.30;99.90;;;;;;6344120;22;20041;-84
2022/10/13 05:34:50;;;;;;;38.33;22.67;;;10.30;99.90;;;;;;6343892;22;20014;-84
2022/10/13 05:37:17;;;;;;;46.42;25.75;;;10.30;99.90;;;;;;6372243;22;20018;-83
2022/10/13 05:39:43;;;;;;;39.83;23.58;;;10.40;99.90;;;;;;6344117;22;20025;-82
2022/10/13 05:42:08;;;;;;;41.58;25.52;;;10.30;99.90;;;;;;6344801;22;20046;-81
2022/10/13 05:44:36;;;;;;;41.83;25.65;;;10.30;99.90;;;;;;6344830;22;20429;-82
2022/10/13 05:47:02;;;;;;;42.65;24.27;;;10.30;99.90;;;;;;6343943;22;20322;-83
2022/10/13 05:49:28;;;;;;;40.88;25.48;;;10.30;99.90;;;;;;6372468;22;20014;-82
2022/10/13 05:52:03;;;;;;;41.65;25.10;;;10.30;99.90;;;;;;6372138;22;20025;-82
2022/10/13 05:54:35;;;;;;;44.15;25.40;;;10.30;99.90;;;;;;6344446;22;20021;-83
2022/10/13 05:57:07;;;;;;;43.30;26.40;;;10.30;99.90;;;;;;6344752;22;20349;-83
2022/10/13 05:59:40;;;;;;;38.88;24.73;;;10.30;99.90;;;;;;6344233;22;20019;-84
2022/10/13 06:02:06;;;;;;;;;;;10.40;99.90;;;;;;6345354;22;20089;-83
2022/10/13 06:04:42;;;;;;;46.05;25.30;;;10.40;99.90;;;;;;6344604;22;19937;-83
2022/10/13 06:07:08;;;;;;;42.70;25.60;;;10.30;99.90;;;;;;6372454;22;20018;-83
2022/10/13 06:09:38;;;;;;;40.47;24.52;;;10.30;99.90;;;;;;6372663;22;20015;-82
2022/10/13 06:12:05;;;;;;;43.05;24.10;;;10.30;99.90;;;;;;6343573;22;20379;-82
2022/10/13 06:14:31;;;;;;;41.47;25.08;;;10.40;99.90;;;;;;6343063;22;20022;-81
2022/10/13 06:16:57;;;;;;;41.75;25.88;;;10.40;99.90;;;;;;6343920;22;20037;-82
2022/10/13 06:19:23;;;;;;;46.92;24.88;;;10.40;99.90;;;;;;6343504;22;20018;-81
2022/10/13 06:21:48;;;;;;;45.88;26.58;;;10.40;99.90;;;;;;6343520;22;20018;-81
2022/10/13 06:24:14;;;;;;;40.85;25.15;;;10.40;99.90;;;;;;6371601;22;20015;-81
2022/10/13 06:26:40;;;;;;;41.33;24.70;;;10.40;99.90;;;;;;6343345;22;20468;-80
2022/10/13 06:29:05;;;;;;;48.72;25.88;;;10.50;99.90;;;;;;6371092;22;20036;-80
2022/10/13 06:31:31;;;;;;;41.92;25.55;;;10.40;99.90;;;;;;6343728;22;20425;-80
2022/10/13 06:33:58;;;;;;;41.83;25.02;;;10.40;99.90;;;;;;6343248;22;20525;-80
2022/10/13 06:36:23;;;;;;;43.60;24.90;;;10.50;99.90;;;;;;6343344;22;20059;-81
2022/10/13 06:38:49;;;;;;;40.47;23.50;;;10.50;99.90;;;;;;6371311;22;20037;-80
2022/10/13 06:41:15;;;;;;;40.13;23.23;;;10.50;99.90;;;;;;6343054;22;20017;-80
2022/10/13 06:43:41;;;;;;;41.28;25.73;;;10.50;99.90;;;;;;6371293;22;20071;-80
2022/10/13 06:46:07;;;;;;;37.30;24.23;;;10.50;99.90;;;;;;6369874;22;20022;-79
2022/10/13 06:48:33;;;;;;;40.03;24.65;;;10.50;99.90;;;;;;6342954;22;20025;-79
2022/10/13 06:51:07;;;;;;;43.33;24.30;;;10.60;99.90;;;;;;6342960;22;20085;-79
2022/10/13 06:53:32;;;;;;;46.22;26.30;;;10.50;99.90;;;;;;6342974;22;20375;-79
2022/10/13 06:56:00;;;;;;;42.10;25.73;;;10.60;99.90;;;;;;6342913;22;20022;-80
2022/10/13 06:58:25;;;;;;;45.88;26.50;;;10.60;99.90;;;;;;6342781;22;20433;-80
2022/10/13 07:00:52;;;;;;;41.00;24.73;;;10.70;99.90;;;;;;6342957;22;20020;-79
2022/10/13 07:03:17;;;;;;;45.35;26.38;;;10.70;99.90;;;;;;6342750;22;20030;-80
2022/10/13 07:05:43;;;;;;;42.42;25.80;;;10.70;99.90;;;;;;6342909;22;20050;-80
2022/10/13 07:08:08;;;;;;;43.75;25.02;;;10.70;99.90;;;;;;6370413;22;20093;-80
2022/10/13 07:10:37;;;;;;;48.20;26.55;;;10.80;99.90;;;;;;6370908;22;20455;-81
2022/10/13 07:13:03;;;;;;;49.08;26.10;;;10.80;99.90;;;;;;6337390;22;20114;-79
2022/10/13 07:15:29;;;;;;;49.05;27.30;;;10.80;99.90;;;;;;6337633;22;20368;-79
2022/10/13 07:17:56;;;;;;;46.08;27.63;;;10.90;99.90;;;;;;6339132;22;20023;-80
2022/10/13 07:20:31;;;;;;;44.92;25.45;;;10.90;99.90;;;;;;6338667;22;20022;-80
2022/10/13 07:22:56;;;;;;;53.63;27.63;;;10.90;99.90;;;;;;6337201;22;20349;-81
2022/10/13 07:25:22;;;;;;;47.15;27.27;;;10.90;99.90;;;;;;6337440;22;20015;-80
2022/10/13 07:27:48;;;;;;;42.17;25.65;;;11.00;99.90;;;;;;6362644;22;20019;-81
2022/10/13 07:30:14;;;;;;;51.33;28.08;;;11.00;99.90;;;;;;6338941;22;20014;-80
2022/10/13 07:32:41;;;;;;;48.50;26.38;;;11.10;99.90;;;;;;6339112;22;20094;-80
2022/10/13 07:35:08;;;;;;;43.67;25.05;;;11.00;99.90;;;;;;6336983;22;20017;-80
2022/10/13 07:37:34;;;;;;;48.10;26.98;;;11.10;99.90;;;;;;6338997;22;20014;-80
2022/10/13 07:40:02;;;;;;;53.85;28.17;;;11.10;99.90;;;;;;6339303;22;20046;-79
2022/10/13 07:42:28;;;;;;;46.80;26.98;;;11.20;99.90;;;;;;6339097;22;20128;-79
2022/10/13 07:44:53;;;;;;;54.80;28.42;;;11.20;99.90;;;;;;6332464;22;20078;-80
2022/10/13 07:47:22;;;;;;;53.53;29.13;;;11.30;99.90;;;;;;6327359;22;20422;-78
2022/10/13 07:49:47;;;;;;;49.80;26.75;;;11.30;99.90;;;;;;6338543;22;20029;-81
2022/10/13 07:52:13;;;;;;;50.08;27.60;;;11.30;99.90;;;;;;6337706;22;20022;-80
2022/10/13 07:54:39;;;;;;;59.08;29.27;;;11.30;99.90;;;;;;6341109;22;20064;-79
2022/10/13 07:57:04;;;;;;;57.15;29.80;;;11.40;99.90;;;;;;6339389;22;20438;-80
2022/10/13 07:59:33;;;;;;;61.35;31.65;;;11.40;99.90;;;;;;6339165;22;20026;-79
2022/10/13 08:02:14;;;;;;;51.67;29.05;;;11.40;99.90;;;;;;6340776;22;20045;-79
2022/10/13 08:04:42;;;;;;;53.72;30.65;;;11.40;99.90;;;;;;6340144;22;20322;-80
2022/10/13 08:07:08;;;;;;;52.53;29.90;;;11.40;99.90;;;;;;6338367;22;20029;-81
2022/10/13 08:09:40;;;;;;;62.58;30.95;;;11.40;99.90;;;;;;6338951;22;20018;-80
2022/10/13 08:12:06;;;;;;;62.20;31.98;;;11.50;99.90;;;;;;6353773;22;20014;-79
2022/10/13 08:14:31;;;;;;;60.65;31.02;;;11.50;99.90;;;;;;6370553;22;20026;-80
2022/10/13 08:16:57;;;;;;;60.13;30.80;;;11.50;99.90;;;;;;6344026;22;20022;-80
2022/10/13 08:19:25;;;;;;;56.30;28.88;;;11.50;99.90;;;;;;6344137;22;20341;-80
2022/10/13 08:21:51;;;;;;;60.05;30.17;;;11.60;99.90;;;;;;6372648;22;20011;-80
2022/10/13 08:24:18;;;;;;;61.30;30.88;;;11.60;99.90;;;;;;6344217;22;20086;-81
2022/10/13 08:26:45;;;;;;;67.18;30.75;;;11.60;99.90;;;;;;6344003;22;20067;-80
2022/10/13 08:29:12;;;;;;;63.33;31.17;;;11.70;99.90;;;;;;6371983;22;20018;-80
2022/10/13 08:31:38;;;;;;;64.75;31.25;;;11.70;99.90;;;;;;6371985;22;20093;-80
2022/10/13 08:34:04;;;;;;;72.45;32.25;;;11.80;99.90;;;;;;6343834;22;20037;-80
2022/10/13 08:36:30;;;;;;;63.00;31.25;;;11.80;99.90;;;;;;6343214;22;20132;-79
2022/10/13 08:38:55;;;;;;;67.35;32.95;;;11.80;99.90;;;;;;6343769;22;20417;-80
2022/10/13 08:41:28;;;;;;;67.40;32.08;;;11.90;99.90;;;;;;6372159;22;20085;-80
2022/10/13 08:44:04;;;;;;;62.60;32.72;;;11.90;99.90;;;;;;6343954;22;20341;-80
2022/10/13 08:46:45;;;;;;;71.97;33.05;;;12.00;99.90;;;;;;6371905;22;20333;-80
2022/10/13 08:49:14;;;;;;;69.50;32.92;;;12.00;99.90;;;;;;6369928;22;20018;-80
2022/10/13 08:51:40;;;;;;;71.30;32.85;;;12.00;99.90;;;;;;6369806;22;20457;-81
2022/10/13 08:54:06;;;;;;;69.10;33.20;;;12.00;99.90;;;;;;6342393;22;20098;-81
2022/10/13 09:00:02;;;;;;;67.10;33.65;;;12.10;99.90;;;;;;6311674;22;20109;-78
2022/10/13 09:02:30;;;;;;;69.40;33.22;;;12.10;99.90;;;;;;6342812;22;20053;-78
2022/10/13 09:04:59;;;;;;;66.68;33.22;;;12.20;99.90;;;;;;6342636;22;20011;-78
2022/10/13 09:07:33;;;;;;;71.55;33.10;;;12.20;99.90;;;;;;6371847;22;20014;-78
2022/10/13 09:09:59;;;;;;;66.50;33.63;;;12.30;99.90;;;;;;6371594;22;20083;-78
2022/10/13 09:12:25;;;;;;;72.43;34.42;;;12.30;99.90;;;;;;6371631;22;20059;-79
2022/10/13 09:18:33;;;;;;;65.57;32.10;;;12.30;99.90;;;;;;6372022;22;20075;-78
2022/10/13 09:21:23;;;;;;;72.15;35.08;;;12.40;99.90;;;;;;6371435;22;20022;-79
2022/10/13 09:23:50;;;;;;;66.00;31.92;;;12.40;99.90;;;;;;6343958;22;20016;-79
2022/10/13 09:26:20;;;;;;;66.80;33.50;;;12.50;99.90;;;;;;6371667;22;20018;-79
2022/10/13 09:28:47;;;;;;;67.55;32.03;;;12.50;99.90;;;;;;6343688;22;20022;-79
2022/10/13 09:31:26;;;;;;;60.40;33.30;;;12.50;99.90;;;;;;6371552;22;20022;-79
2022/10/13 09:34:12;;;;;;;62.42;31.73;;;12.50;99.90;;;;;;6371220;22;20014;-79
2022/10/13 09:36:37;;;;;;;61.25;32.25;;;12.50;99.90;;;;;;6371602;22;20018;-79
2022/10/13 09:39:14;;;;;;;62.35;30.48;;;12.60;99.90;;;;;;6371715;22;20025;-79
2022/10/13 09:41:43;;;;;;;58.92;30.73;;;12.60;99.90;;;;;;6371876;22;20080;-79
2022/10/13 09:44:25;;;;;;;64.68;31.92;;;12.60;99.90;;;;;;6371680;22;20445;-79
2022/10/13 09:46:55;;;;;;;58.00;30.38;;;12.60;99.90;;;;;;6371533;22;20441;-80
2022/10/13 09:49:40;;;;;;;60.60;29.73;;;12.60;99.90;;;;;;6371718;22;20021;-80
2022/10/13 09:52:13;;;;;;;57.13;28.40;;;12.70;99.90;;;;;;6343575;22;20441;-78
2022/10/13 09:54:38;;;;;;;51.75;29.63;;;12.60;99.90;;;;;;6371827;22;20091;-79
2022/10/13 09:57:29;;;;;;;61.90;31.95;;;12.70;99.90;;;;;;6343560;22;20045;-78
2022/10/13 10:00:03;;;;;;;52.05;29.27;;;12.70;99.90;;;;;;6371274;22;20093;-80
2022/10/13 10:02:37;;;;;;;57.33;30.63;;;12.70;99.90;;;;;;6343645;22;20050;-79
2022/10/13 10:05:40;;;;;;;53.97;28.75;;;12.70;99.90;;;;;;6343547;22;20060;-79
2022/10/13 10:08:15;;;;;;;;;;;12.70;99.90;;;;;;6299204;22;20437;-85
2022/10/13 10:10:41;;;;;;;50.53;28.25;;;12.80;99.90;;;;;;6343419;22;19954;-87
2022/10/13 10:13:13;;;;;;;57.25;29.65;;;12.80;99.90;;;;;;6371157;22;20015;-88
2022/10/13 10:16:20;;;;;;;55.78;29.88;;;12.80;99.90;;;;;;6343420;22;20070;-83
2022/10/13 10:18:56;;;;;;;59.35;29.55;;;12.80;99.90;;;;;;6330758;22;20051;-84
2022/10/13 10:21:42;;;;;;;57.38;29.20;;;12.90;99.90;;;;;;6343263;22;20006;-82
2022/10/13 10:24:48;;;;;;;56.88;28.33;;;12.90;99.90;;;;;;6343660;22;20021;-81
2022/10/13 10:27:20;;;;;;;54.08;28.10;;;12.90;99.90;;;;;;6343256;22;20093;-81
2022/10/13 10:29:53;;;;;;;50.13;28.57;;;13.00;99.90;;;;;;6371468;22;20018;-84
2022/10/13 10:32:27;;;;;;;53.80;27.73;;;13.00;99.90;;;;;;6343259;22;20014;-83
2022/10/13 10:34:55;;;;;;;59.20;29.67;;;13.10;99.90;;;;;;6371465;22;20046;-83
2022/10/13 10:37:42;;;;;;;53.85;28.00;;;13.20;99.90;;;;;;6343080;22;20022;-84
2022/10/13 10:40:14;;;;;;;56.85;27.25;;;13.20;99.90;;;;;;6343173;22;20053;-84
2022/10/13 10:42:55;;;;;;;53.42;26.75;;;13.30;99.90;;;;;;6343142;22;20018;-83
2022/10/13 10:45:25;;;;;;;44.40;24.95;;;13.40;99.90;;;;;;6343206;22;20025;-83
2022/10/13 10:47:59;;;;;;;48.15;26.17;;;13.40;99.90;;;;;;6342992;22;20014;-83
2022/10/13 10:50:25;;;;;;;43.25;24.25;;;13.50;99.90;;;;;;6370906;22;20018;-83
2022/10/13 10:53:17;;;;;;;44.53;25.75;;;13.50;99.90;;;;;;6343146;22;20421;-78
2022/10/13 10:55:52;;;;;;;44.85;24.05;;;13.60;99.90;;;;;;6369773;22;20345;-80
2022/10/13 10:58:38;;;;;;;50.30;25.08;;;13.70;99.90;;;;;;6341545;22;20064;-77
2022/10/13 11:01:09;;;;;;;45.58;25.30;;;13.70;99.90;;;;;;6370656;22;20014;-85
2022/10/13 11:03:48;;;;;;;39.95;24.80;;;13.80;99.90;;;;;;6370849;22;20514;-78
2022/10/13 11:10:00;;;;;;;38.40;21.58;;;13.90;99.90;;;;;;6371093;22;20045;-79
2022/10/13 11:12:43;;;;;;;33.65;19.30;;;14.00;99.90;;;;;;6370640;22;20067;-79
2022/10/13 11:15:12;;;;;;;33.60;19.73;;;14.00;99.90;;;;;;6342777;22;20014;-79
2022/10/13 11:17:39;;;;;;;31.67;19.23;;;14.00;99.90;;;;;;6342613;22;20110;-79
2022/10/13 11:20:20;;;;;;;29.48;16.92;;;14.10;99.90;;;;;;6370520;22;20046;-79
2022/10/13 11:22:58;;;;;;;33.78;17.67;;;14.20;99.90;;;;;;6370946;22;20014;-79
2022/10/13 11:25:33;;;;;;;27.13;15.88;;;14.30;99.90;;;;;;6370580;22;20471;-78
2022/10/13 11:27:58;;;;;;;28.05;16.17;;;14.30;99.90;;;;;;6342241;22;20353;-78
2022/10/13 11:30:45;;;;;;;29.05;16.95;;;14.30;99.90;;;;;;6342856;22;20010;-78
2022/10/13 11:33:30;;;;;;;26.33;15.43;;;14.30;99.90;;;;;;6370607;22;20014;-78
2022/10/13 11:35:55;;;;;;;27.60;15.27;;;14.20;99.90;;;;;;6342809;22;20097;-78
2022/10/13 11:38:36;;;;;;;25.20;13.73;;;14.30;99.90;;;;;;6370342;22;20057;-78
2022/10/13 11:41:19;;;;;;;25.17;15.05;;;14.30;99.90;;;;;;6342780;22;20018;-78
2022/10/13 11:44:16;;;;;;;27.90;15.63;;;14.30;99.90;;;;;;6342401;22;20029;-78
2022/10/13 11:47:22;;;;;;;25.83;14.43;;;14.30;99.90;;;;;;6366362;22;20773;-78
2022/10/13 11:50:13;;;;;;;23.20;13.00;;;14.30;99.90;;;;;;6306708;22;20380;-77
2022/10/13 11:53:23;;;;;;;21.55;12.75;;;14.30;99.90;;;;;;6370703;22;20046;-77
2022/10/13 11:55:57;;;;;;;21.00;11.50;;;14.50;99.90;;;;;;6355886;22;20014;-77
2022/10/13 11:58:31;;;;;;;19.33;10.80;;;14.50;99.90;;;;;;6342483;22;20333;-78
2022/10/13 12:01:06;;;;;;;18.35;10.10;;;14.40;99.90;;;;;;6369798;22;20018;-78
2022/10/13 12:03:40;;;;;;;19.17;10.05;;;14.40;99.90;;;;;;6369044;22;20505;-78
2022/10/13 12:06:15;;;;;;;20.73;10.10;;;14.50;99.90;;;;;;6342449;22;20056;-76
2022/10/13 12:08:46;;;;;;;16.80;9.32;;;14.60;99.90;;;;;;6369871;22;20089;-79
2022/10/13 12:11:30;;;;;;;16.30;9.15;;;14.60;99.90;;;;;;6370576;22;20106;-86
2022/10/13 12:13:57;;;;;;;12.95;7.72;;;14.70;99.90;;;;;;6342384;22;20021;-86
2022/10/13 12:16:23;;;;;;;14.38;7.50;;;14.70;99.90;;;;;;6370225;22;20331;-77
2022/10/13 12:18:49;;;;;;;17.25;7.13;;;14.80;99.90;;;;;;6370381;22;20488;-88
2022/10/13 12:21:19;;;;;;;12.45;6.55;;;14.80;99.90;;;;;;6342241;22;20014;-86
2022/10/13 12:23:45;;;;;;;11.23;6.03;;;14.70;99.90;;;;;;6342075;22;20483;-86
2022/10/13 12:26:23;;;;;;;10.60;3.72;;;14.60;99.90;;;;;;6370487;22;20026;-85
2022/10/13 12:28:53;;;;;;;13.93;3.53;;;14.60;99.90;;;;;;6370418;22;20014;-85
2022/10/13 12:31:24;;;;;;;12.15;4.70;;;14.60;99.90;;;;;;6370580;22;20037;-82
2022/10/13 12:33:59;;;;;;;8.82;3.08;;;14.70;99.90;;;;;;6342206;22;20457;-77
2022/10/13 12:36:27;;;;;;;11.40;4.00;;;14.60;99.90;;;;;;6340902;22;20101;-85
2022/10/13 12:38:56;;;;;;;8.00;2.85;;;14.80;99.90;;;;;;6339723;22;20010;-76
2022/10/13 12:41:26;;;;;;;8.57;3.13;;;14.80;99.90;;;;;;6372128;22;20042;-87
2022/10/13 12:43:52;;;;;;;9.48;2.55;;;14.80;99.90;;;;;;6343774;22;20082;-81
2022/10/13 12:46:36;;;;;;;11.18;2.92;;;14.80;99.90;;;;;;6372009;22;20021;-84
2022/10/13 12:49:16;;;;;;;6.72;2.40;;;14.80;99.90;;;;;;6344000;22;20390;-84
2022/10/13 12:51:44;;;;;;;9.60;2.95;;;15.00;99.90;;;;;;6344052;22;20014;-84
2022/10/13 12:54:31;;;;;;;6.78;2.60;;;14.90;99.90;;;;;;6371511;22;20449;-85
2022/10/13 12:57:00;;;;;;;7.50;2.20;;;15.00;99.90;;;;;;6343527;22;20337;-88
2022/10/13 12:59:28;;;;;;;8.13;1.95;;;14.90;99.90;;;;;;6343891;22;20022;-86
2022/10/13 13:02:03;;;;;;;7.53;2.67;;;14.90;99.90;;;;;;6341439;22;20014;-85
2022/10/13 13:04:40;;;;;;;11.25;2.22;;;15.00;99.90;;;;;;6369924;22;20049;-77
2022/10/13 13:07:26;;;;;;;11.65;3.45;;;15.00;99.90;;;;;;6370810;22;20014;-91
2022/10/13 13:10:19;;;;;;;8.07;2.17;;;15.00;99.90;;;;;;6343872;22;20018;-80
2022/10/13 13:12:46;;;;;;;10.77;1.70;;;14.90;99.90;;;;;;6372135;22;20082;-78
2022/10/13 13:15:34;;;;;;;7.93;2.55;;;14.90;99.90;;;;;;6371810;22;20089;-78
2022/10/13 13:18:30;;;;;;;9.35;1.90;;;14.90;99.90;;;;;;6371936;22;20018;-77
2022/10/13 13:20:56;;;;;;;11.05;2.80;;;14.90;99.90;;;;;;6343749;22;20150;-77
2022/10/13 13:23:22;;;;;;;13.70;2.63;;;14.90;99.90;;;;;;6371862;22;20014;-77
2022/10/13 13:26:21;;;;;;;7.35;1.75;;;14.90;99.90;;;;;;6343656;22;20042;-77
2022/10/13 13:28:53;;;;;;;8.27;1.70;;;14.90;99.90;;;;;;6303339;22;20015;-77
2022/10/13 13:31:21;;;;;;;8.70;2.45;;;14.80;99.90;;;;;;6343256;22;20050;-78
2022/10/13 13:33:48;;;;;;;7.65;2.25;;;14.80;99.90;;;;;;6371835;22;20014;-78
2022/10/13 13:36:19;;;;;;;8.63;1.80;;;14.90;99.90;;;;;;6371713;22;20087;-77
2022/10/13 13:38:45;;;;;;;5.57;2.22;;;14.90;99.90;;;;;;6371497;22;20379;-77
2022/10/13 13:41:11;;;;;;;9.07;1.98;;;14.90;99.90;;;;;;6370910;22;20435;-77